sensor_id;sensor_type;location;lat;lon;timestamp;pressure;altitude;pressure_sealevel;temperature;humidity
12182;BME280;6154;51.550;12.138;2023-03-25T00:01:13;99368.37;;;14.80;58.57
12182;BME280;6154;51.550;12.138;2023-03-25T00:03:43;99356.62;;;14.73;59.09
12182;BME280;6154;51.550;12.138;2023-03-25T00:06:12;99359.97;;;14.75;58.86
12182;BME280;6154;51.550;12.138;2023-03-25T00:08:41;99358.00;;;14.77;58.66
12182;BME280;6154;51.550;12.138;2023-03-25T00:11:10;99355.19;;;14.79;58.28
12182;BME280;6154;51.550;12.138;2023-03-25T00:13:38;99351.69;;;14.78;58.47
12182;BME280;6154;51.550;12.138;2023-03-25T00:16:08;99357.16;;;14.77;58.28
12182;BME280;6154;51.550;12.138;2023-03-25T00:18:38;99355.03;;;14.71;58.32
12182;BME280;6154;51.550;12.138;2023-03-25T00:21:07;99353.66;;;14.66;58.59
12182;BME280;6154;51.550;12.138;2023-03-25T00:23:38;99352.34;;;14.61;59.15
12182;BME280;6154;51.550;12.138;2023-03-25T00:26:07;99354.31;;;14.59;59.09
12182;BME280;6154;51.550;12.138;2023-03-25T00:28:36;99357.50;;;14.53;59.44
12182;BME280;6154;51.550;12.138;2023-03-25T00:31:10;99350.50;;;14.52;59.35
12182;BME280;6154;51.550;12.138;2023-03-25T00:33:40;99344.19;;;14.53;58.94
12182;BME280;6154;51.550;12.138;2023-03-25T00:36:09;99349.66;;;14.51;59.30
12182;BME280;6154;51.550;12.138;2023-03-25T00:38:39;99346.31;;;14.49;59.42
12182;BME280;6154;51.550;12.138;2023-03-25T00:41:12;99346.88;;;14.53;59.45
12182;BME280;6154;51.550;12.138;2023-03-25T00:43:43;99346.75;;;14.54;59.19
12182;BME280;6154;51.550;12.138;2023-03-25T00:46:12;99342.41;;;14.53;59.70
12182;BME280;6154;51.550;12.138;2023-03-25T00:48:42;99349.81;;;14.50;59.88
12182;BME280;6154;51.550;12.138;2023-03-25T00:51:10;99361.06;;;14.53;59.97
12182;BME280;6154;51.550;12.138;2023-03-25T00:53:40;99352.19;;;14.53;60.08
12182;BME280;6154;51.550;12.138;2023-03-25T00:56:08;99354.59;;;14.56;60.22
12182;BME280;6154;51.550;12.138;2023-03-25T00:58:37;99345.34;;;14.60;59.75
12182;BME280;6154;51.550;12.138;2023-03-25T01:01:14;99342.53;;;14.61;60.04
12182;BME280;6154;51.550;12.138;2023-03-25T01:03:44;99343.97;;;14.65;60.42
12182;BME280;6154;51.550;12.138;2023-03-25T01:06:14;99340.03;;;14.70;59.68
12182;BME280;6154;51.550;12.138;2023-03-25T01:08:43;99342.88;;;14.78;59.63
12182;BME280;6154;51.550;12.138;2023-03-25T01:11:17;99338.37;;;14.78;59.81
12182;BME280;6154;51.550;12.138;2023-03-25T01:13:48;99328.72;;;14.77;59.96
12182;BME280;6154;51.550;12.138;2023-03-25T01:16:17;99324.53;;;14.84;59.50
12182;BME280;6154;51.550;12.138;2023-03-25T01:18:47;99325.22;;;14.96;58.69
12182;BME280;6154;51.550;12.138;2023-03-25T01:21:16;99323.53;;;14.95;59.14
12182;BME280;6154;51.550;12.138;2023-03-25T01:23:45;99320.03;;;15.04;58.58
12182;BME280;6154;51.550;12.138;2023-03-25T01:26:13;99314.81;;;15.03;58.50
12182;BME280;6154;51.550;12.138;2023-03-25T01:28:44;99315.13;;;15.09;58.45
12182;BME280;6154;51.550;12.138;2023-03-25T01:31:13;99314.28;;;15.09;58.41
12182;BME280;6154;51.550;12.138;2023-03-25T01:33:47;99312.31;;;15.11;58.38
12182;BME280;6154;51.550;12.138;2023-03-25T01:36:15;99308.94;;;15.09;58.62
12182;BME280;6154;51.550;12.138;2023-03-25T01:38:43;99314.81;;;15.03;58.96
12182;BME280;6154;51.550;12.138;2023-03-25T01:41:13;99312.44;;;15.00;59.13
12182;BME280;6154;51.550;12.138;2023-03-25T01:43:41;99305.59;;;14.97;59.18
12182;BME280;6154;51.550;12.138;2023-03-25T01:46:10;99303.47;;;15.01;59.16
12182;BME280;6154;51.550;12.138;2023-03-25T01:48:42;99301.78;;;14.80;59.82
12182;BME280;6154;51.550;12.138;2023-03-25T01:51:16;99294.78;;;14.99;59.10
12182;BME280;6154;51.550;12.138;2023-03-25T01:53:46;99303.06;;;15.05;58.81
12182;BME280;6154;51.550;12.138;2023-03-25T01:56:19;99298.84;;;15.12;58.21
12182;BME280;6154;51.550;12.138;2023-03-25T01:58:50;99296.31;;;15.11;58.32
12182;BME280;6154;51.550;12.138;2023-03-25T02:01:20;99294.78;;;15.18;57.71
12182;BME280;6154;51.550;12.138;2023-03-25T02:03:50;99287.91;;;15.15;58.05
12182;BME280;6154;51.550;12.138;2023-03-25T02:06:22;99279.22;;;15.13;58.17
12182;BME280;6154;51.550;12.138;2023-03-25T02:08:56;99280.75;;;15.16;57.94
12182;BME280;6154;51.550;12.138;2023-03-25T02:11:25;99283.00;;;15.11;58.26
12182;BME280;6154;51.550;12.138;2023-03-25T02:13:58;99287.22;;;15.13;57.86
12182;BME280;6154;51.550;12.138;2023-03-25T02:16:33;99285.41;;;15.14;57.81
12182;BME280;6154;51.550;12.138;2023-03-25T02:19:26;99280.06;;;15.04;58.34
12182;BME280;6154;51.550;12.138;2023-03-25T02:22:33;99280.91;;;15.05;58.71
12182;BME280;6154;51.550;12.138;2023-03-25T02:25:24;99270.94;;;15.07;58.50
12182;BME280;6154;51.550;12.138;2023-03-25T02:28:08;99269.53;;;15.03;58.26
12182;BME280;6154;51.550;12.138;2023-03-25T02:30:50;99252.03;;;14.90;58.47
12182;BME280;6154;51.550;12.138;2023-03-25T02:33:38;99254.00;;;14.88;58.92
12182;BME280;6154;51.550;12.138;2023-03-25T02:36:35;99255.38;;;14.92;58.84
12182;BME280;6154;51.550;12.138;2023-03-25T02:39:11;99260.31;;;14.87;58.77
12182;BME280;6154;51.550;12.138;2023-03-25T02:41:47;99255.13;;;14.86;58.50
12182;BME280;6154;51.550;12.138;2023-03-25T02:44:22;99273.34;;;14.90;58.14
12182;BME280;6154;51.550;12.138;2023-03-25T02:46:55;99276.56;;;14.94;58.01
12182;BME280;6154;51.550;12.138;2023-03-25T02:49:28;99277.13;;;14.98;57.76
12182;BME280;6154;51.550;12.138;2023-03-25T02:52:00;99279.25;;;15.04;57.47
12182;BME280;6154;51.550;12.138;2023-03-25T02:54:34;99278.94;;;15.07;57.28
12182;BME280;6154;51.550;12.138;2023-03-25T02:57:06;99274.59;;;15.06;57.17
12182;BME280;6154;51.550;12.138;2023-03-25T02:59:35;99274.75;;;14.94;57.58
12182;BME280;6154;51.550;12.138;2023-03-25T03:02:08;99269.81;;;15.00;57.11
12182;BME280;6154;51.550;12.138;2023-03-25T03:04:46;99265.78;;;14.86;57.34
12182;BME280;6154;51.550;12.138;2023-03-25T03:07:20;99263.09;;;14.86;57.59
12182;BME280;6154;51.550;12.138;2023-03-25T03:09:56;99278.41;;;14.74;57.59
12182;BME280;6154;51.550;12.138;2023-03-25T03:12:38;99269.41;;;14.75;57.48
12182;BME280;6154;51.550;12.138;2023-03-25T03:15:20;99261.13;;;14.78;57.41
12182;BME280;6154;51.550;12.138;2023-03-25T03:18:03;99266.03;;;14.83;57.48
12182;BME280;6154;51.550;12.138;2023-03-25T03:20:38;99272.91;;;14.66;57.79
12182;BME280;6154;51.550;12.138;2023-03-25T03:23:12;99271.66;;;14.70;57.43
12182;BME280;6154;51.550;12.138;2023-03-25T03:25:49;99272.34;;;14.82;57.38
12182;BME280;6154;51.550;12.138;2023-03-25T03:28:23;99276.97;;;14.99;56.84
12182;BME280;6154;51.550;12.138;2023-03-25T03:30:59;99272.62;;;14.88;57.09
12182;BME280;6154;51.550;12.138;2023-03-25T03:33:36;99268.28;;;14.87;57.29
12182;BME280;6154;51.550;12.138;2023-03-25T03:36:09;99276.44;;;14.95;56.90
12182;BME280;6154;51.550;12.138;2023-03-25T03:38:46;99271.09;;;15.05;56.56
12182;BME280;6154;51.550;12.138;2023-03-25T03:41:20;99273.03;;;15.13;56.49
12182;BME280;6154;51.550;12.138;2023-03-25T03:43:54;99277.41;;;15.14;56.63
12182;BME280;6154;51.550;12.138;2023-03-25T03:46:27;99282.59;;;15.06;56.87
12182;BME280;6154;51.550;12.138;2023-03-25T03:48:59;99286.25;;;15.05;56.87
12182;BME280;6154;51.550;12.138;2023-03-25T03:51:30;99279.25;;;15.04;56.83
12182;BME280;6154;51.550;12.138;2023-03-25T03:54:03;99284.56;;;15.13;56.64
12182;BME280;6154;51.550;12.138;2023-03-25T03:56:37;99275.56;;;15.14;56.68
12182;BME280;6154;51.550;12.138;2023-03-25T03:59:12;99271.09;;;15.15;56.85
12182;BME280;6154;51.550;12.138;2023-03-25T04:01:45;99281.16;;;15.11;56.98
12182;BME280;6154;51.550;12.138;2023-03-25T04:04:17;99285.50;;;15.12;56.94
12182;BME280;6154;51.550;12.138;2023-03-25T04:06:52;99282.84;;;15.12;57.01
12182;BME280;6154;51.550;12.138;2023-03-25T04:09:24;99287.94;;;15.06;57.11
12182;BME280;6154;51.550;12.138;2023-03-25T04:12:04;99281.75;;;15.15;56.69
12182;BME280;6154;51.550;12.138;2023-03-25T04:14:36;99286.25;;;15.05;57.21
12182;BME280;6154;51.550;12.138;2023-03-25T04:17:05;99293.41;;;15.14;56.71
12182;BME280;6154;51.550;12.138;2023-03-25T04:19:33;99299.13;;;15.19;56.51
12182;BME280;6154;51.550;12.138;2023-03-25T04:22:03;99296.19;;;15.03;57.25
12182;BME280;6154;51.550;12.138;2023-03-25T04:24:31;99297.88;;;15.13;56.88
12182;BME280;6154;51.550;12.138;2023-03-25T04:27:05;99302.34;;;15.22;56.46
12182;BME280;6154;51.550;12.138;2023-03-25T04:29:35;99304.91;;;15.14;56.88
12182;BME280;6154;51.550;12.138;2023-03-25T04:32:07;99298.28;;;15.28;56.47
12182;BME280;6154;51.550;12.138;2023-03-25T04:34:35;99306.00;;;15.21;56.63
12182;BME280;6154;51.550;12.138;2023-03-25T04:37:03;99304.44;;;15.19;56.71
12182;BME280;6154;51.550;12.138;2023-03-25T04:39:32;99309.22;;;15.25;56.52
12182;BME280;6154;51.550;12.138;2023-03-25T04:42:00;99303.59;;;15.28;56.29
12182;BME280;6154;51.550;12.138;2023-03-25T04:44:31;99304.44;;;15.29;56.28
12182;BME280;6154;51.550;12.138;2023-03-25T04:47:06;99300.56;;;15.13;56.13
12182;BME280;6154;51.550;12.138;2023-03-25T04:49:37;99306.84;;;15.12;56.36
12182;BME280;6154;51.550;12.138;2023-03-25T04:52:06;99296.91;;;15.05;56.42
12182;BME280;6154;51.550;12.138;2023-03-25T04:54:35;99306.97;;;15.11;56.39
12182;BME280;6154;51.550;12.138;2023-03-25T04:57:04;99323.94;;;15.10;56.36
12182;BME280;6154;51.550;12.138;2023-03-25T04:59:36;99308.41;;;15.15;56.26
12182;BME280;6154;51.550;12.138;2023-03-25T05:02:05;99313.00;;;15.13;56.22
12182;BME280;6154;51.550;12.138;2023-03-25T05:04:33;99312.88;;;15.05;56.04
12182;BME280;6154;51.550;12.138;2023-03-25T05:07:02;99302.22;;;15.05;56.09
12182;BME280;6154;51.550;12.138;2023-03-25T05:09:30;99296.75;;;15.16;55.97
12182;BME280;6154;51.550;12.138;2023-03-25T05:11:58;99296.06;;;15.14;55.79
12182;BME280;6154;51.550;12.138;2023-03-25T05:14:26;99291.28;;;15.08;55.93
12182;BME280;6154;51.550;12.138;2023-03-25T05:16:56;99296.75;;;15.16;55.75
12182;BME280;6154;51.550;12.138;2023-03-25T05:19:26;99291.00;;;15.11;55.62
12182;BME280;6154;51.550;12.138;2023-03-25T05:21:55;99294.94;;;14.87;56.02
12182;BME280;6154;51.550;12.138;2023-03-25T05:24:23;99308.66;;;14.83;56.28
12182;BME280;6154;51.550;12.138;2023-03-25T05:26:52;99310.47;;;14.82;55.99
12182;BME280;6154;51.550;12.138;2023-03-25T05:29:20;99319.75;;;14.98;55.86
12182;BME280;6154;51.550;12.138;2023-03-25T05:31:48;99317.38;;;14.85;56.01
12182;BME280;6154;51.550;12.138;2023-03-25T05:34:18;99314.56;;;14.86;55.95
12182;BME280;6154;51.550;12.138;2023-03-25T05:36:46;99322.97;;;14.91;55.86
12182;BME280;6154;51.550;12.138;2023-03-25T05:39:14;99319.31;;;15.02;55.49
12182;BME280;6154;51.550;12.138;2023-03-25T05:41:43;99319.31;;;15.12;55.34
12182;BME280;6154;51.550;12.138;2023-03-25T05:44:11;99320.75;;;15.16;55.31
12182;BME280;6154;51.550;12.138;2023-03-25T05:46:41;99323.56;;;15.14;55.17
12182;BME280;6154;51.550;12.138;2023-03-25T05:49:09;99333.62;;;15.11;55.26
12182;BME280;6154;51.550;12.138;2023-03-25T05:51:39;99333.06;;;14.98;55.64
12182;BME280;6154;51.550;12.138;2023-03-25T05:54:08;99334.22;;;15.05;55.46
12182;BME280;6154;51.550;12.138;2023-03-25T05:56:38;99329.87;;;15.13;55.38
12182;BME280;6154;51.550;12.138;2023-03-25T05:59:07;99333.78;;;15.29;55.27
12182;BME280;6154;51.550;12.138;2023-03-25T06:01:36;99344.59;;;15.17;55.48
12182;BME280;6154;51.550;12.138;2023-03-25T06:04:04;99339.91;;;15.48;55.17
12182;BME280;6154;51.550;12.138;2023-03-25T06:06:36;99346.81;;;15.61;55.22
12182;BME280;6154;51.550;12.138;2023-03-25T06:09:07;99347.63;;;15.71;55.04
12182;BME280;6154;51.550;12.138;2023-03-25T06:11:36;99344.22;;;15.88;54.86
12182;BME280;6154;51.550;12.138;2023-03-25T06:14:06;99359.13;;;15.71;53.81
12182;BME280;6154;51.550;12.138;2023-03-25T06:16:35;99346.97;;;16.06;54.36
12182;BME280;6154;51.550;12.138;2023-03-25T06:19:03;99348.84;;;15.96;54.00
12182;BME280;6154;51.550;12.138;2023-03-25T06:21:32;99348.66;;;16.07;53.87
12182;BME280;6154;51.550;12.138;2023-03-25T06:24:00;99351.38;;;15.88;54.06
12182;BME280;6154;51.550;12.138;2023-03-25T06:26:30;99351.66;;;15.94;53.84
12182;BME280;6154;51.550;12.138;2023-03-25T06:28:59;99347.00;;;15.96;53.67
12182;BME280;6154;51.550;12.138;2023-03-25T06:31:28;99353.56;;;15.65;53.36
12182;BME280;6154;51.550;12.138;2023-03-25T06:34:00;99358.28;;;15.71;53.99
12182;BME280;6154;51.550;12.138;2023-03-25T06:36:29;99356.91;;;15.67;53.96
12182;BME280;6154;51.550;12.138;2023-03-25T06:38:57;99359.13;;;15.71;54.08
12182;BME280;6154;51.550;12.138;2023-03-25T06:41:26;99360.28;;;15.69;53.89
12182;BME280;6154;51.550;12.138;2023-03-25T06:43:56;99360.97;;;15.71;54.08
12182;BME280;6154;51.550;12.138;2023-03-25T06:46:26;99362.09;;;15.68;53.53
12182;BME280;6154;51.550;12.138;2023-03-25T06:48:56;99359.13;;;15.71;53.88
12182;BME280;6154;51.550;12.138;2023-03-25T06:51:24;99350.72;;;15.76;54.07
12182;BME280;6154;51.550;12.138;2023-03-25T06:53:53;99350.34;;;16.08;53.95
12182;BME280;6154;51.550;12.138;2023-03-25T06:56:21;99356.34;;;16.10;54.12
12182;BME280;6154;51.550;12.138;2023-03-25T06:58:49;99357.81;;;16.04;53.91
12182;BME280;6154;51.550;12.138;2023-03-25T07:01:18;99363.28;;;15.93;53.86
12182;BME280;6154;51.550;12.138;2023-03-25T07:03:47;99362.38;;;16.12;53.82
12182;BME280;6154;51.550;12.138;2023-03-25T07:06:17;99369.75;;;16.00;54.15
12182;BME280;6154;51.550;12.138;2023-03-25T07:08:46;99363.41;;;16.01;53.83
12182;BME280;6154;51.550;12.138;2023-03-25T07:11:15;99368.09;;;15.90;53.91
12182;BME280;6154;51.550;12.138;2023-03-25T07:13:45;99369.56;;;15.65;54.25
12182;BME280;6154;51.550;12.138;2023-03-25T07:16:13;99377.41;;;15.76;53.98
12182;BME280;6154;51.550;12.138;2023-03-25T07:18:42;99380.50;;;15.62;53.91
12182;BME280;6154;51.550;12.138;2023-03-25T07:21:11;99378.09;;;15.59;54.15
12182;BME280;6154;51.550;12.138;2023-03-25T07:23:39;99378.25;;;15.67;54.21
12182;BME280;6154;51.550;12.138;2023-03-25T07:26:07;99380.75;;;15.49;54.36
12182;BME280;6154;51.550;12.138;2023-03-25T07:28:35;99385.25;;;15.77;54.18
12182;BME280;6154;51.550;12.138;2023-03-25T07:31:05;99387.38;;;15.74;54.09
12182;BME280;6154;51.550;12.138;2023-03-25T07:33:34;99389.88;;;15.85;53.95
12182;BME280;6154;51.550;12.138;2023-03-25T07:36:06;99395.09;;;15.67;54.44
12182;BME280;6154;51.550;12.138;2023-03-25T07:38:34;99397.16;;;15.83;53.71
12182;BME280;6154;51.550;12.138;2023-03-25T07:41:04;99406.75;;;15.76;54.62
12182;BME280;6154;51.550;12.138;2023-03-25T07:43:32;99390.87;;;15.84;54.36
12182;BME280;6154;51.550;12.138;2023-03-25T07:46:01;99402.62;;;15.91;54.49
12182;BME280;6154;51.550;12.138;2023-03-25T07:48:29;99398.97;;;15.82;54.35
12182;BME280;6154;51.550;12.138;2023-03-25T07:50:58;99400.72;;;15.74;54.37
12182;BME280;6154;51.550;12.138;2023-03-25T07:53:27;99398.69;;;16.05;54.24
12182;BME280;6154;51.550;12.138;2023-03-25T07:55:55;99400.47;;;16.14;54.28
12182;BME280;6154;51.550;12.138;2023-03-25T07:58:23;99395.81;;;16.26;54.20
12182;BME280;6154;51.550;12.138;2023-03-25T08:00:51;99394.38;;;16.22;54.48
12182;BME280;6154;51.550;12.138;2023-03-25T08:03:19;99393.53;;;16.58;53.91
12182;BME280;6154;51.550;12.138;2023-03-25T08:05:48;99391.69;;;16.69;54.24
12182;BME280;6154;51.550;12.138;2023-03-25T08:08:17;99396.75;;;16.62;54.38
12182;BME280;6154;51.550;12.138;2023-03-25T08:10:46;99406.31;;;16.64;53.84
12182;BME280;6154;51.550;12.138;2023-03-25T08:13:14;99410.19;;;16.80;53.94
12182;BME280;6154;51.550;12.138;2023-03-25T08:15:42;99415.31;;;16.63;55.05
12182;BME280;6154;51.550;12.138;2023-03-25T08:18:11;99412.81;;;16.52;54.78
12182;BME280;6154;51.550;12.138;2023-03-25T08:20:39;99410.03;;;16.54;55.01
12182;BME280;6154;51.550;12.138;2023-03-25T08:23:08;99410.06;;;16.44;55.62
12182;BME280;6154;51.550;12.138;2023-03-25T08:25:39;99422.72;;;15.95;57.02
12182;BME280;6154;51.550;12.138;2023-03-25T08:28:09;99416.59;;;16.22;56.49
12182;BME280;6154;51.550;12.138;2023-03-25T08:30:38;99435.63;;;15.90;57.69
12182;BME280;6154;51.550;12.138;2023-03-25T08:33:06;99420.94;;;16.23;56.72
12182;BME280;6154;51.550;12.138;2023-03-25T08:35:37;99421.13;;;16.02;57.82
12182;BME280;6154;51.550;12.138;2023-03-25T08:38:06;99402.53;;;16.30;57.02
12182;BME280;6154;51.550;12.138;2023-03-25T08:40:35;99402.59;;;16.48;56.96
12182;BME280;6154;51.550;12.138;2023-03-25T08:43:04;99409.62;;;16.49;57.27
12182;BME280;6154;51.550;12.138;2023-03-25T08:45:34;99411.75;;;16.73;56.54
12182;BME280;6154;51.550;12.138;2023-03-25T08:48:03;99411.28;;;16.50;57.01
12182;BME280;6154;51.550;12.138;2023-03-25T08:50:32;99408.28;;;16.62;56.81
12182;BME280;6154;51.550;12.138;2023-03-25T08:53:00;99411.66;;;16.64;56.27
12182;BME280;6154;51.550;12.138;2023-03-25T08:55:29;99402.38;;;16.69;56.35
12182;BME280;6154;51.550;12.138;2023-03-25T08:58:00;99401.06;;;16.73;56.01
12182;BME280;6154;51.550;12.138;2023-03-25T09:00:29;99408.25;;;16.72;56.47
12182;BME280;6154;51.550;12.138;2023-03-25T09:02:59;99401.00;;;17.10;56.01
12182;BME280;6154;51.550;12.138;2023-03-25T09:05:27;99391.75;;;17.04;55.94
12182;BME280;6154;51.550;12.138;2023-03-25T09:07:56;99385.34;;;17.33;55.26
12182;BME280;6154;51.550;12.138;2023-03-25T09:10:24;99377.22;;;17.42;54.92
12182;BME280;6154;51.550;12.138;2023-03-25T09:12:52;99386.34;;;17.32;54.58
12182;BME280;6154;51.550;12.138;2023-03-25T09:15:21;99382.53;;;17.16;54.36
12182;BME280;6154;51.550;12.138;2023-03-25T09:17:49;99394.13;;;17.43;54.05
12182;BME280;6154;51.550;12.138;2023-03-25T09:20:19;99390.28;;;17.81;54.35
12182;BME280;6154;51.550;12.138;2023-03-25T09:22:48;99385.56;;;17.57;54.01
12182;BME280;6154;51.550;12.138;2023-03-25T09:25:17;99394.59;;;18.00;53.94
12182;BME280;6154;51.550;12.138;2023-03-25T09:27:45;99389.00;;;17.85;53.00
12182;BME280;6154;51.550;12.138;2023-03-25T09:30:14;99377.31;;;18.20;53.16
12182;BME280;6154;51.550;12.138;2023-03-25T09:32:42;99385.72;;;17.99;51.94
12182;BME280;6154;51.550;12.138;2023-03-25T09:35:11;99380.31;;;18.17;52.56
12182;BME280;6154;51.550;12.138;2023-03-25T09:37:42;99390.84;;;18.45;52.84
12182;BME280;6154;51.550;12.138;2023-03-25T09:40:12;99405.25;;;18.52;51.83
12182;BME280;6154;51.550;12.138;2023-03-25T09:42:58;99401.69;;;18.69;50.70
12182;BME280;6154;51.550;12.138;2023-03-25T09:45:33;99394.78;;;19.09;50.32
12182;BME280;6154;51.550;12.138;2023-03-25T09:48:04;99397.78;;;19.06;50.08
12182;BME280;6154;51.550;12.138;2023-03-25T09:50:38;99395.00;;;18.65;48.26
12182;BME280;6154;51.550;12.138;2023-03-25T09:53:21;99393.16;;;18.74;50.53
12182;BME280;6154;51.550;12.138;2023-03-25T09:55:52;99391.81;;;18.44;49.03
12182;BME280;6154;51.550;12.138;2023-03-25T09:58:39;99391.09;;;18.25;50.80
12182;BME280;6154;51.550;12.138;2023-03-25T10:01:19;99395.62;;;18.33;49.60
12182;BME280;6154;51.550;12.138;2023-03-25T10:04:02;99391.25;;;18.24;49.20
12182;BME280;6154;51.550;12.138;2023-03-25T10:06:39;99388.47;;;18.42;50.08
12182;BME280;6154;51.550;12.138;2023-03-25T10:09:25;99384.91;;;18.33;49.92
12182;BME280;6154;51.550;12.138;2023-03-25T10:12:00;99394.88;;;18.49;48.33
12182;BME280;6154;51.550;12.138;2023-03-25T10:14:38;99388.50;;;18.16;49.19
12182;BME280;6154;51.550;12.138;2023-03-25T10:17:16;99390.87;;;18.19;49.67
12182;BME280;6154;51.550;12.138;2023-03-25T10:19:56;99391.25;;;17.98;49.37
12182;BME280;6154;51.550;12.138;2023-03-25T10:22:36;99385.28;;;18.04;48.66
12182;BME280;6154;51.550;12.138;2023-03-25T10:25:14;99380.97;;;17.85;48.80
12182;BME280;6154;51.550;12.138;2023-03-25T10:27:47;99381.84;;;18.20;49.70
12182;BME280;6154;51.550;12.138;2023-03-25T10:30:18;99383.34;;;18.56;50.50
12182;BME280;6154;51.550;12.138;2023-03-25T10:32:50;99377.41;;;18.71;50.40
12182;BME280;6154;51.550;12.138;2023-03-25T10:35:23;99373.91;;;18.78;49.33
12182;BME280;6154;51.550;12.138;2023-03-25T10:37:53;99374.25;;;18.83;50.04
12182;BME280;6154;51.550;12.138;2023-03-25T10:40:29;99370.75;;;18.91;49.57
12182;BME280;6154;51.550;12.138;2023-03-25T10:43:08;99375.34;;;19.15;48.99
12182;BME280;6154;51.550;12.138;2023-03-25T10:45:41;99373.28;;;18.84;46.63
12182;BME280;6154;51.550;12.138;2023-03-25T10:48:12;99378.88;;;19.15;49.22
12182;BME280;6154;51.550;12.138;2023-03-25T10:50:42;99380.06;;;19.37;48.70
12182;BME280;6154;51.550;12.138;2023-03-25T10:53:19;99378.03;;;19.31;49.69
12182;BME280;6154;51.550;12.138;2023-03-25T10:55:55;99376.34;;;19.22;47.36
12182;BME280;6154;51.550;12.138;2023-03-25T10:58:25;99372.66;;;19.07;46.54
12182;BME280;6154;51.550;12.138;2023-03-25T11:00:54;99368.47;;;19.20;48.45
12182;BME280;6154;51.550;12.138;2023-03-25T11:03:25;99363.88;;;18.88;48.23
12182;BME280;6154;51.550;12.138;2023-03-25T11:05:57;99368.56;;;18.78;47.86
12182;BME280;6154;51.550;12.138;2023-03-25T11:08:25;99370.75;;;18.91;48.84
12182;BME280;6154;51.550;12.138;2023-03-25T11:10:55;99365.50;;;18.73;48.32
12182;BME280;6154;51.550;12.138;2023-03-25T11:13:26;99366.03;;;18.77;49.16
12182;BME280;6154;51.550;12.138;2023-03-25T11:15:57;99373.22;;;18.68;48.58
12182;BME280;6154;51.550;12.138;2023-03-25T11:18:29;99376.78;;;18.51;47.94
12182;BME280;6154;51.550;12.138;2023-03-25T11:21:00;99365.66;;;18.72;48.14
12182;BME280;6154;51.550;12.138;2023-03-25T11:23:31;99350.66;;;18.53;46.92
12182;BME280;6154;51.550;12.138;2023-03-25T11:26:04;99363.66;;;18.65;48.13
12182;BME280;6154;51.550;12.138;2023-03-25T11:28:36;99359.88;;;19.01;46.58
12182;BME280;6154;51.550;12.138;2023-03-25T11:31:08;99352.00;;;18.99;47.92
12182;BME280;6154;51.550;12.138;2023-03-25T11:33:39;99345.97;;;19.13;47.54
12182;BME280;6154;51.550;12.138;2023-03-25T11:36:19;99344.16;;;19.46;48.62
12182;BME280;6154;51.550;12.138;2023-03-25T11:38:56;99333.75;;;19.19;46.45
12182;BME280;6154;51.550;12.138;2023-03-25T11:41:34;99334.38;;;18.88;45.05
12182;BME280;6154;51.550;12.138;2023-03-25T11:44:04;99335.09;;;19.23;45.51
12182;BME280;6154;51.550;12.138;2023-03-25T11:46:33;99321.03;;;19.29;46.75
12182;BME280;6154;51.550;12.138;2023-03-25T11:49:09;99319.00;;;19.47;45.90
12182;BME280;6154;51.550;12.138;2023-03-25T11:51:38;99316.00;;;19.67;46.55
12182;BME280;6154;51.550;12.138;2023-03-25T11:54:10;99311.41;;;19.84;45.84
12182;BME280;6154;51.550;12.138;2023-03-25T11:56:41;99310.47;;;19.60;45.54
12182;BME280;6154;51.550;12.138;2023-03-25T11:59:20;99302.25;;;19.45;44.35
12182;BME280;6154;51.550;12.138;2023-03-25T12:01:50;99305.38;;;19.81;44.19
12182;BME280;6154;51.550;12.138;2023-03-25T12:04:21;99297.22;;;19.67;44.66
12182;BME280;6154;51.550;12.138;2023-03-25T12:06:56;99304.25;;;19.60;44.32
12182;BME280;6154;51.550;12.138;2023-03-25T12:09:26;99299.87;;;19.50;45.23
12182;BME280;6154;51.550;12.138;2023-03-25T12:14:57;99302.25;;;19.29;44.84
12182;BME280;6154;51.550;12.138;2023-03-25T12:17:41;99302.25;;;19.29;44.42
12182;BME280;6154;51.550;12.138;2023-03-25T12:20:22;99297.38;;;19.41;44.21
12182;BME280;6154;51.550;12.138;2023-03-25T12:22:59;99293.50;;;19.11;44.12
12182;BME280;6154;51.550;12.138;2023-03-25T12:25:38;99295.19;;;19.61;44.87
12182;BME280;6154;51.550;12.138;2023-03-25T12:28:28;99287.81;;;18.98;44.54
12182;BME280;6154;51.550;12.138;2023-03-25T12:31:03;99281.25;;;19.49;44.88
12182;BME280;6154;51.550;12.138;2023-03-25T12:33:47;99281.28;;;19.33;45.98
12182;BME280;6154;51.550;12.138;2023-03-25T12:36:32;99272.38;;;19.48;45.11
12182;BME280;6154;51.550;12.138;2023-03-25T12:39:19;99267.97;;;19.80;44.81
12182;BME280;6154;51.550;12.138;2023-03-25T12:42:20;99277.41;;;19.51;44.10
12182;BME280;6154;51.550;12.138;2023-03-25T12:45:18;99274.22;;;20.20;43.75
12182;BME280;6154;51.550;12.138;2023-03-25T12:47:55;99268.03;;;20.42;42.68
12182;BME280;6154;51.550;12.138;2023-03-25T12:50:34;99264.19;;;20.76;44.34
12182;BME280;6154;51.550;12.138;2023-03-25T12:53:21;99256.34;;;20.35;41.91
12182;BME280;6154;51.550;12.138;2023-03-25T12:56:01;99261.94;;;19.53;42.31
12182;BME280;6154;51.550;12.138;2023-03-25T12:59:01;99269.72;;;19.65;44.13
12182;BME280;6154;51.550;12.138;2023-03-25T13:01:40;99265.69;;;19.12;45.74
12182;BME280;6154;51.550;12.138;2023-03-25T13:04:28;99267.97;;;18.58;46.51
12182;BME280;6154;51.550;12.138;2023-03-25T13:07:01;99261.81;;;18.74;46.38
12182;BME280;6154;51.550;12.138;2023-03-25T13:09:34;99268.84;;;18.66;47.40
12182;BME280;6154;51.550;12.138;2023-03-25T13:12:09;99262.34;;;18.27;47.22
12182;BME280;6154;51.550;12.138;2023-03-25T13:14:43;99270.34;;;18.69;48.00
12182;BME280;6154;51.550;12.138;2023-03-25T13:17:23;99279.72;;;18.73;46.67
12182;BME280;6154;51.550;12.138;2023-03-25T13:19:56;99285.66;;;18.34;47.46
12182;BME280;6154;51.550;12.138;2023-03-25T13:22:31;99275.09;;;18.41;47.91
12182;BME280;6154;51.550;12.138;2023-03-25T13:25:03;99270.56;;;18.33;47.82
12182;BME280;6154;51.550;12.138;2023-03-25T13:27:38;99281.69;;;18.13;47.05
12182;BME280;6154;51.550;12.138;2023-03-25T13:30:15;99288.81;;;18.30;48.39